createdAt,value
2023-02-07T00:00:42.789Z,13.10
2023-02-07T00:03:30.184Z,11.00
2023-02-07T00:06:19.011Z,11.90
2023-02-07T00:09:07.325Z,11.17
2023-02-07T00:11:54.702Z,13.43
2023-02-07T00:14:42.052Z,24.50
2023-02-07T00:17:30.117Z,24.20
2023-02-07T00:20:17.621Z,23.70
2023-02-07T00:23:05.015Z,24.40
2023-02-07T00:25:52.432Z,22.90
2023-02-07T00:28:40.313Z,23.27
2023-02-07T00:31:29.125Z,14.50
2023-02-07T00:34:16.813Z,12.70
2023-02-07T00:37:04.869Z,14.70
2023-02-07T00:39:52.302Z,22.77
2023-02-07T00:42:39.648Z,37.10
2023-02-07T00:45:27.039Z,38.47
2023-02-07T00:48:14.502Z,27.80
2023-02-07T00:51:01.933Z,23.90
2023-02-07T00:53:49.804Z,19.93
2023-02-07T00:56:37.270Z,19.27
2023-02-07T00:59:24.680Z,23.83
2023-02-07T01:02:12.048Z,27.87
2023-02-07T01:05:00.347Z,28.23
2023-02-07T01:07:47.821Z,29.00
2023-02-07T01:10:35.184Z,29.03
2023-02-07T01:13:22.690Z,31.67
2023-02-07T01:16:27.152Z,43.57
2023-02-07T01:19:15.072Z,40.57
2023-02-07T01:22:04.405Z,30.03
2023-02-07T01:24:53.530Z,27.67
2023-02-07T01:27:40.970Z,27.27
2023-02-07T01:30:28.374Z,19.03
2023-02-07T01:33:15.782Z,17.87
2023-02-07T01:36:07.226Z,22.60
2023-02-07T01:38:55.502Z,19.00
2023-02-07T01:41:42.858Z,14.27
2023-02-07T01:44:30.293Z,12.47
2023-02-07T01:47:22.258Z,13.97
2023-02-07T01:50:10.183Z,12.93
2023-02-07T01:52:59.093Z,12.70
2023-02-07T01:55:46.783Z,15.67
2023-02-07T01:58:34.605Z,13.90
2023-02-07T02:01:24.325Z,12.33
2023-02-07T02:04:11.710Z,11.70
2023-02-07T02:06:59.164Z,15.33
2023-02-07T02:09:46.549Z,12.00
2023-02-07T02:12:36.864Z,11.30
2023-02-07T02:15:32.872Z,10.53
2023-02-07T02:18:23.391Z,15.60
2023-02-07T02:21:13.797Z,10.80
2023-02-07T02:24:11.161Z,11.47
2023-02-07T02:27:04.367Z,12.47
2023-02-07T02:29:51.741Z,10.50
2023-02-07T02:32:42.130Z,12.47
2023-02-07T02:35:32.558Z,10.07
2023-02-07T02:38:29.075Z,11.73
2023-02-07T02:41:20.126Z,15.50
2023-02-07T02:44:19.192Z,12.77
2023-02-07T02:47:06.689Z,12.00
2023-02-07T02:49:54.092Z,15.73
2023-02-07T02:52:50.728Z,12.43
2023-02-07T02:55:57.352Z,12.83
2023-02-07T02:59:03.242Z,12.13
2023-02-07T03:01:50.646Z,12.67
2023-02-07T03:04:50.295Z,11.43
2023-02-07T03:07:43.813Z,12.13
2023-02-07T03:10:43.713Z,9.77
2023-02-07T03:13:38.231Z,8.67
2023-02-07T03:16:31.875Z,10.97
2023-02-07T03:19:30.965Z,11.80
2023-02-07T03:22:20.242Z,12.10
2023-02-07T03:25:08.481Z,11.97
2023-02-07T03:27:56.586Z,12.43
2023-02-07T03:30:44.961Z,13.63
2023-02-07T03:33:32.663Z,10.53
2023-02-07T03:36:25.581Z,13.77
2023-02-07T03:39:12.972Z,11.33
2023-02-07T03:42:02.151Z,13.03
2023-02-07T03:44:50.232Z,14.60
2023-02-07T03:47:37.580Z,13.47
2023-02-07T03:50:24.899Z,12.87
2023-02-07T03:53:12.426Z,16.00
2023-02-07T03:55:59.837Z,10.97
2023-02-07T03:58:47.247Z,12.73
2023-02-07T04:01:40.797Z,15.10
2023-02-07T04:04:28.557Z,14.47
2023-02-07T04:07:15.984Z,13.13
2023-02-07T04:10:03.648Z,15.17
2023-02-07T04:12:51.153Z,17.47
2023-02-07T04:15:39.089Z,16.77
2023-02-07T04:18:26.614Z,15.83
2023-02-07T04:21:14.042Z,16.13
2023-02-07T04:24:01.701Z,16.80
2023-02-07T04:26:49.132Z,16.27
2023-02-07T04:29:36.606Z,13.93
2023-02-07T04:32:23.985Z,11.97
2023-02-07T04:35:11.351Z,13.57
2023-02-07T04:37:58.706Z,13.27
2023-02-07T04:40:46.166Z,12.17
2023-02-07T04:43:34.649Z,14.27
2023-02-07T04:46:22.121Z,14.70
2023-02-07T04:49:09.653Z,15.50
2023-02-07T04:51:57.033Z,14.37
2023-02-07T04:54:44.527Z,12.50
2023-02-07T04:57:31.889Z,16.03
2023-02-07T05:00:19.599Z,16.13
2023-02-07T05:03:06.986Z,15.13
2023-02-07T05:05:55.406Z,14.33
2023-02-07T05:08:42.784Z,13.90
2023-02-07T05:11:30.280Z,13.23
2023-02-07T05:14:17.941Z,12.00
2023-02-07T05:17:05.475Z,13.87
2023-02-07T05:19:52.874Z,13.87
2023-02-07T05:22:40.227Z,12.30
2023-02-07T05:25:27.682Z,16.23
2023-02-07T05:28:15.177Z,14.80
2023-02-07T05:31:02.631Z,15.97
2023-02-07T05:33:50.115Z,15.17
2023-02-07T05:36:37.605Z,15.73
2023-02-07T05:39:25.252Z,15.37
2023-02-07T05:42:12.601Z,14.50
2023-02-07T05:45:00.033Z,21.43
2023-02-07T05:47:47.483Z,26.97
2023-02-07T05:50:34.977Z,22.40
2023-02-07T05:53:22.393Z,31.63
2023-02-07T05:56:09.770Z,25.30
2023-02-07T05:58:57.501Z,35.43
2023-02-07T06:01:44.966Z,49.00
2023-02-07T06:04:32.326Z,26.47
2023-02-07T06:07:19.720Z,18.63
2023-02-07T06:10:07.933Z,23.67
2023-02-07T06:12:55.379Z,37.80
2023-02-07T06:15:42.797Z,18.17
2023-02-07T06:18:30.194Z,22.20
2023-02-07T06:21:17.661Z,55.47
2023-02-07T06:24:05.244Z,63.63
2023-02-07T06:26:52.703Z,65.60
2023-02-07T06:29:40.057Z,39.47
2023-02-07T06:32:27.411Z,33.00
2023-02-07T06:35:15.199Z,33.67
2023-02-07T06:38:02.811Z,28.23
2023-02-07T06:40:50.205Z,31.20
2023-02-07T06:43:38.242Z,23.17
2023-02-07T06:46:25.681Z,20.47
2023-02-07T06:49:13.161Z,18.53
2023-02-07T06:52:00.547Z,17.53
2023-02-07T06:54:48.078Z,18.23
2023-02-07T06:57:35.495Z,24.50
2023-02-07T07:00:23.353Z,21.63
2023-02-07T07:03:14.537Z,21.80
2023-02-07T07:06:02.244Z,23.60
2023-02-07T07:08:51.597Z,26.33
2023-02-07T07:11:42.942Z,22.20
2023-02-07T07:14:30.289Z,21.53
2023-02-07T07:17:18.012Z,20.87
2023-02-07T07:20:07.063Z,39.13
2023-02-07T07:22:54.420Z,31.27
2023-02-07T07:25:41.802Z,20.30
2023-02-07T07:28:29.196Z,19.93
2023-02-07T07:31:17.013Z,19.57
2023-02-07T07:34:05.211Z,17.37
2023-02-07T07:36:56.577Z,20.30
2023-02-07T07:39:44.438Z,20.67
2023-02-07T07:42:31.913Z,24.97
2023-02-07T07:45:19.989Z,19.63
2023-02-07T07:48:07.471Z,26.53
2023-02-07T07:50:55.010Z,24.37
2023-02-07T07:53:42.357Z,41.43
2023-02-07T07:56:29.773Z,28.57
2023-02-07T07:59:23.856Z,30.30
2023-02-07T08:02:13.482Z,25.03
2023-02-07T08:05:00.870Z,26.47
2023-02-07T08:07:48.360Z,23.23
2023-02-07T08:10:35.984Z,24.53
2023-02-07T08:13:23.398Z,22.40
2023-02-07T08:16:11.939Z,39.27
2023-02-07T08:18:59.360Z,25.80
2023-02-07T08:21:46.757Z,29.63
2023-02-07T08:24:35.874Z,33.67
2023-02-07T08:27:23.373Z,29.93
2023-02-07T08:30:11.810Z,34.33
2023-02-07T08:32:59.223Z,25.80
2023-02-07T08:35:46.725Z,29.57
2023-02-07T08:38:34.121Z,27.67
2023-02-07T08:41:21.547Z,27.90
2023-02-07T08:44:08.928Z,26.90
2023-02-07T08:46:56.314Z,45.50
2023-02-07T08:49:44.038Z,34.50
2023-02-07T08:52:31.480Z,55.03
2023-02-07T08:55:18.956Z,25.67
2023-02-07T08:58:06.346Z,33.27
2023-02-07T09:00:53.774Z,29.03
2023-02-07T09:03:41.306Z,29.33
2023-02-07T09:06:29.079Z,31.73
2023-02-07T09:09:16.453Z,29.50
2023-02-07T09:12:04.125Z,33.03
2023-02-07T09:14:51.522Z,34.00
2023-02-07T09:17:39.007Z,34.13
2023-02-07T09:20:26.464Z,29.70
2023-02-07T09:23:19.834Z,31.57
2023-02-07T09:26:08.160Z,32.47
2023-02-07T09:28:55.597Z,38.30
2023-02-07T09:31:43.337Z,34.23
2023-02-07T09:34:32.661Z,40.27
2023-02-07T09:37:20.105Z,41.80
2023-02-07T09:40:07.809Z,36.23
2023-02-07T09:43:02.722Z,40.10
2023-02-07T09:45:53.931Z,40.10
2023-02-07T09:48:51.197Z,40.03
2023-02-07T09:51:39.149Z,42.33
2023-02-07T09:54:30.630Z,43.33
2023-02-07T09:57:37.927Z,39.13
2023-02-07T10:00:27.596Z,46.23
2023-02-07T10:03:17.622Z,39.43
2023-02-07T10:06:17.935Z,39.77
2023-02-07T10:09:09.576Z,40.50
2023-02-07T10:12:03.025Z,34.03
2023-02-07T10:14:56.313Z,38.17
2023-02-07T10:17:43.651Z,39.63
2023-02-07T10:20:37.445Z,40.47
2023-02-07T10:23:35.717Z,52.70
2023-02-07T10:26:39.251Z,37.17
2023-02-07T10:29:47.536Z,39.27
2023-02-07T10:32:37.121Z,37.27
2023-02-07T10:35:38.435Z,37.50
2023-02-07T10:38:31.962Z,36.57
2023-02-07T10:41:39.670Z,32.63
2023-02-07T10:44:29.444Z,32.97
2023-02-07T10:47:17.888Z,35.63
2023-02-07T10:50:10.436Z,37.13
2023-02-07T10:52:58.689Z,37.93
2023-02-07T10:55:47.212Z,37.47
2023-02-07T10:58:41.003Z,32.67
2023-02-07T11:01:29.796Z,33.47
2023-02-07T11:04:36.182Z,33.23
2023-02-07T11:07:24.139Z,35.13
2023-02-07T11:10:17.395Z,35.30
2023-02-07T11:13:05.956Z,46.10
2023-02-07T11:15:56.844Z,41.77
2023-02-07T11:18:45.617Z,37.20
2023-02-07T11:21:36.254Z,28.90
2023-02-07T11:24:31.638Z,36.00
2023-02-07T11:27:21.529Z,37.33
2023-02-07T11:30:10.537Z,36.67
2023-02-07T11:32:59.551Z,33.90
2023-02-07T11:36:07.701Z,35.10
2023-02-07T11:38:55.830Z,34.47
2023-02-07T11:41:43.161Z,28.60
2023-02-07T11:44:31.623Z,32.80
2023-02-07T11:47:28.075Z,31.90
2023-02-07T11:50:24.655Z,37.57
2023-02-07T11:53:24.340Z,37.80
2023-02-07T11:56:23.718Z,36.83
2023-02-07T11:59:19.448Z,39.53
2023-02-07T12:02:35.911Z,38.83
2023-02-07T12:05:25.365Z,35.57
2023-02-07T12:08:16.168Z,30.83
2023-02-07T12:11:06.551Z,32.50
2023-02-07T12:13:56.415Z,37.50
2023-02-07T12:16:55.148Z,38.13
2023-02-07T12:19:52.918Z,36.33
2023-02-07T12:22:44.543Z,35.37
2023-02-07T12:25:40.004Z,31.13
2023-02-07T12:28:34.361Z,34.23
2023-02-07T12:31:26.805Z,36.90
2023-02-07T12:34:34.488Z,31.57
2023-02-07T12:37:34.157Z,39.13
2023-02-07T12:40:35.257Z,36.63
2023-02-07T12:43:27.691Z,35.07
2023-02-07T12:46:18.068Z,36.67
2023-02-07T12:49:14.233Z,39.10
2023-02-07T12:52:20.689Z,37.90
2023-02-07T12:55:20.431Z,36.47
2023-02-07T12:58:13.865Z,35.33
2023-02-07T13:01:03.980Z,39.57
2023-02-07T13:04:14.805Z,33.60
2023-02-07T13:07:17.649Z,37.20
2023-02-07T13:10:08.126Z,40.90
2023-02-07T13:13:18.424Z,36.03
2023-02-07T13:16:14.928Z,34.60
2023-02-07T13:19:13.373Z,32.93
2023-02-07T13:22:21.001Z,42.83
2023-02-07T13:25:14.138Z,36.73
2023-02-07T13:28:04.354Z,39.93
2023-02-07T13:30:53.502Z,39.10
2023-02-07T13:33:41.269Z,42.83
2023-02-07T13:36:43.087Z,39.90
2023-02-07T13:39:49.353Z,39.60
2023-02-07T13:42:57.365Z,38.23
2023-02-07T13:46:03.446Z,37.70
2023-02-07T13:48:55.612Z,37.17
2023-02-07T13:51:57.721Z,37.57
2023-02-07T13:55:20.743Z,32.20
2023-02-07T13:58:45.644Z,31.87
2023-02-07T14:01:33.562Z,30.10
2023-02-07T14:04:22.524Z,31.90
2023-02-07T14:07:19.099Z,33.93
2023-02-07T14:10:08.921Z,34.60
2023-02-07T14:12:56.991Z,34.60
2023-02-07T14:15:46.941Z,28.83
2023-02-07T14:18:40.641Z,35.60
2023-02-07T14:21:32.899Z,37.37
2023-02-07T14:24:21.372Z,34.13
2023-02-07T14:27:26.480Z,36.97
2023-02-07T14:30:13.913Z,37.83
2023-02-07T14:33:10.500Z,34.87
2023-02-07T14:36:04.137Z,37.67
2023-02-07T14:39:02.909Z,37.97
2023-02-07T14:41:52.119Z,37.53
2023-02-07T14:44:40.706Z,39.03
2023-02-07T14:47:29.888Z,39.93
2023-02-07T14:50:19.813Z,44.67
2023-02-07T14:53:07.277Z,42.57
2023-02-07T14:55:55.528Z,40.57
2023-02-07T14:58:44.925Z,38.93
2023-02-07T15:01:32.326Z,41.40
2023-02-07T15:04:19.713Z,39.57
2023-02-07T15:07:11.720Z,37.13
2023-02-07T15:09:59.096Z,40.17
2023-02-07T15:12:47.042Z,35.27
2023-02-07T15:16:12.978Z,36.27
2023-02-07T15:19:07.494Z,34.87
2023-02-07T15:21:55.567Z,36.00
2023-02-07T15:24:51.336Z,36.57
2023-02-07T15:27:39.090Z,33.10
2023-02-07T15:30:26.870Z,35.37
2023-02-07T15:33:19.736Z,35.37
2023-02-07T15:36:08.079Z,38.73
2023-02-07T15:38:55.525Z,37.80
2023-02-07T15:41:45.104Z,38.83
2023-02-07T15:44:36.245Z,38.97
2023-02-07T15:47:29.436Z,39.50
2023-02-07T15:50:27.362Z,37.77
2023-02-07T15:53:21.350Z,38.77
2023-02-07T15:56:08.963Z,39.37
2023-02-07T15:58:58.846Z,48.17
2023-02-07T16:01:53.012Z,39.40
2023-02-07T16:04:40.418Z,40.23
2023-02-07T16:07:27.849Z,41.10
2023-02-07T16:10:20.194Z,41.13
2023-02-07T16:13:07.704Z,39.53
2023-02-07T16:15:59.326Z,34.90
2023-02-07T16:18:48.084Z,46.83
2023-02-07T16:21:37.523Z,42.87
2023-02-07T16:24:27.550Z,40.67
2023-02-07T16:27:18.224Z,43.33
2023-02-07T16:30:05.924Z,41.70
2023-02-07T16:32:53.297Z,41.90
2023-02-07T16:35:40.787Z,40.83
2023-02-07T16:38:28.325Z,41.17
2023-02-07T16:41:25.647Z,38.30
2023-02-07T16:44:15.680Z,39.53
2023-02-07T16:47:03.334Z,37.67
2023-02-07T16:49:51.072Z,35.77
2023-02-07T16:52:42.119Z,38.07
2023-02-07T16:55:30.190Z,35.03
2023-02-07T16:58:28.459Z,37.90
2023-02-07T17:01:18.246Z,34.97
2023-02-07T17:04:05.663Z,38.47
2023-02-07T17:06:53.054Z,36.50
2023-02-07T17:09:40.627Z,36.33
2023-02-07T17:12:27.969Z,36.43
2023-02-07T17:15:15.459Z,38.50
2023-02-07T17:18:03.463Z,34.33
2023-02-07T17:20:51.021Z,34.30
2023-02-07T17:23:38.530Z,34.13
2023-02-07T17:26:27.685Z,38.10
2023-02-07T17:29:16.223Z,37.53
2023-02-07T17:32:03.629Z,34.63
2023-02-07T17:34:51.103Z,38.43
2023-02-07T17:37:38.604Z,33.53
2023-02-07T17:40:28.461Z,32.57
2023-02-07T17:43:16.070Z,40.58
2023-02-07T17:46:03.511Z,36.47
2023-02-07T17:48:51.492Z,38.10
2023-02-07T17:51:38.827Z,38.23
2023-02-07T17:54:26.216Z,37.87
2023-02-07T17:57:13.858Z,33.77
2023-02-07T18:00:01.959Z,36.50
2023-02-07T18:02:49.372Z,37.67
2023-02-07T18:05:37.081Z,38.93
2023-02-07T18:08:24.614Z,40.63
2023-02-07T18:11:14.180Z,36.30
2023-02-07T18:14:02.953Z,42.63
2023-02-07T18:16:50.279Z,41.70
2023-02-07T18:19:37.656Z,39.53
2023-02-07T18:22:25.083Z,39.07
2023-02-07T18:25:12.512Z,39.13
2023-02-07T18:28:00.575Z,36.70
2023-02-07T18:30:48.144Z,35.17
2023-02-07T18:33:43.130Z,36.63
2023-02-07T18:36:36.810Z,36.93
2023-02-07T18:39:24.207Z,41.67
2023-02-07T18:42:13.641Z,38.60
2023-02-07T18:45:02.730Z,42.17
2023-02-07T18:47:50.385Z,41.87
2023-02-07T18:50:43.445Z,40.93
2023-02-07T18:53:30.838Z,39.40
2023-02-07T18:56:19.715Z,39.50
2023-02-07T18:59:07.132Z,38.17
2023-02-07T19:01:54.584Z,42.90
2023-02-07T19:04:42.012Z,41.87
2023-02-07T19:07:29.456Z,47.87
2023-02-07T19:10:17.284Z,35.73
2023-02-07T19:13:04.637Z,43.40
2023-02-07T19:15:54.801Z,41.57
2023-02-07T19:18:42.163Z,39.77
2023-02-07T19:21:29.638Z,43.43
2023-02-07T19:24:20.719Z,47.07
2023-02-07T19:27:08.240Z,42.17
2023-02-07T19:29:55.686Z,47.37
2023-02-07T19:32:43.013Z,39.23
2023-02-07T19:35:30.418Z,40.43
2023-02-07T19:38:17.932Z,38.33
2023-02-07T19:41:05.825Z,39.70
2023-02-07T19:43:53.621Z,43.83
2023-02-07T19:46:41.090Z,38.77
2023-02-07T19:49:28.726Z,36.03
2023-02-07T19:52:19.004Z,38.87
2023-02-07T19:55:06.729Z,36.73
2023-02-07T19:57:54.556Z,36.10
2023-02-07T20:00:42.777Z,38.07
2023-02-07T20:03:32.565Z,33.83
2023-02-07T20:06:23.372Z,37.53
2023-02-07T20:09:10.820Z,37.80
2023-02-07T20:11:58.329Z,38.23
2023-02-07T20:14:45.804Z,33.97
2023-02-07T20:17:33.218Z,40.17
2023-02-07T20:20:20.560Z,39.77
2023-02-07T20:23:09.394Z,37.57
2023-02-07T20:26:02.423Z,34.87
2023-02-07T20:28:50.339Z,39.93
2023-02-07T20:31:38.132Z,38.73
2023-02-07T20:34:25.559Z,37.80
2023-02-07T20:37:13.247Z,34.87
2023-02-07T20:40:00.705Z,34.37
2023-02-07T20:42:48.083Z,37.03
2023-02-07T20:45:35.394Z,39.43
2023-02-07T20:48:22.777Z,36.60
2023-02-07T20:51:10.959Z,39.50
2023-02-07T20:53:59.250Z,37.57
2023-02-07T20:56:58.815Z,36.97
2023-02-07T20:59:46.224Z,39.57
2023-02-07T21:02:33.665Z,39.43
2023-02-07T21:05:21.098Z,38.17
2023-02-07T21:08:08.845Z,35.80
2023-02-07T21:10:56.422Z,36.00
2023-02-07T21:13:44.712Z,39.47
2023-02-07T21:16:33.726Z,37.73
2023-02-07T21:19:22.538Z,39.63
2023-02-07T21:22:09.891Z,36.33
2023-02-07T21:24:57.212Z,37.70
2023-02-07T21:27:44.542Z,36.10
2023-02-07T21:30:31.927Z,39.97
2023-02-07T21:33:19.359Z,38.77
2023-02-07T21:36:25.867Z,41.50
2023-02-07T21:39:13.353Z,40.67
2023-02-07T21:42:00.949Z,39.23
2023-02-07T21:44:48.276Z,39.70
2023-02-07T21:47:35.610Z,36.63
2023-02-07T21:50:23.258Z,39.47
2023-02-07T21:53:10.782Z,48.27
2023-02-07T21:56:02.204Z,36.17
2023-02-07T21:58:54.001Z,43.37
2023-02-07T22:01:41.530Z,47.07
2023-02-07T22:04:29.313Z,47.40
2023-02-07T22:07:16.688Z,42.43
2023-02-07T22:10:04.391Z,39.10
2023-02-07T22:12:51.858Z,42.33
2023-02-07T22:15:39.270Z,42.13
2023-02-07T22:18:26.744Z,38.40
2023-02-07T22:21:20.673Z,34.73
2023-02-07T22:24:08.222Z,38.37
2023-02-07T22:26:55.616Z,36.17
2023-02-07T22:29:43.059Z,35.87
2023-02-07T22:32:31.156Z,32.23
2023-02-07T22:35:18.632Z,32.07
2023-02-07T22:38:06.363Z,32.90
2023-02-07T22:40:53.780Z,28.47
2023-02-07T22:43:41.480Z,29.60
2023-02-07T22:46:29.304Z,37.20
2023-02-07T22:49:16.731Z,37.20
2023-02-07T22:52:04.173Z,34.07
2023-02-07T22:54:51.519Z,32.37
2023-02-07T22:57:39.161Z,35.10
2023-02-07T23:00:26.871Z,34.97
2023-02-07T23:03:14.219Z,34.13
2023-02-07T23:06:05.670Z,37.27
2023-02-07T23:08:53.384Z,36.73
2023-02-07T23:11:40.852Z,33.83
2023-02-07T23:14:28.322Z,31.57
2023-02-07T23:17:15.700Z,30.67
2023-02-07T23:20:03.138Z,30.80
2023-02-07T23:22:50.563Z,30.13
2023-02-07T23:25:37.954Z,30.70
2023-02-07T23:28:25.472Z,29.50
2023-02-07T23:31:14.506Z,29.83
2023-02-07T23:34:02.098Z,29.17
2023-02-07T23:36:50.654Z,31.97
2023-02-07T23:39:38.256Z,30.60
2023-02-07T23:42:25.694Z,33.17
2023-02-07T23:45:13.060Z,33.10
2023-02-07T23:48:02.238Z,31.13
2023-02-07T23:50:53.238Z,31.83
2023-02-07T23:53:40.760Z,29.87
2023-02-07T23:56:28.152Z,28.47
2023-02-07T23:59:15.640Z,25.27
